Time;durP1;ratioP1;P1;durP2;ratioP2;P2;SDS_P1;SDS_P2;PMS_P1;PMS_P2;Temp;Humidity;BMP_temperature;BMP_pressure;BME280_temperature;BME280_humidity;BME280_pressure;Samples;Min_cycle;Max_cycle;Signal;HPM_P1;HPM_P2
2021/12/18 00:00:08;;;;;;;11.00;6.00;;;;;;;3.36;89.33;102173.88;2962281;80;21031;-67
2021/12/18 00:04:12;;;;;;;12.70;6.37;;;;;;;3.39;88.02;102175.13;2962192;80;21067;-70
2021/12/18 00:08:14;;;;;;;11.15;6.70;;;;;;;3.37;87.65;102176.46;2962277;80;21662;-68
2021/12/18 00:12:15;;;;;;;13.45;9.30;;;;;;;3.22;89.19;102171.09;2962990;80;21068;-69
2021/12/18 00:16:17;;;;;;;77.15;53.63;;;;;;;3.15;91.25;102164.23;2962588;80;21052;-66
2021/12/18 00:20:20;;;;;;;60.83;39.15;;;;;;;3.20;93.00;102169.37;2962806;80;21016;-68
2021/12/18 00:24:22;;;;;;;26.23;18.92;;;;;;;3.24;93.17;102174.55;2962861;80;21075;-68
2021/12/18 00:28:24;;;;;;;21.12;10.70;;;;;;;3.38;92.62;102172.93;2962851;80;21004;-66
2021/12/18 00:32:25;;;;;;;21.33;11.43;;;;;;;3.49;91.91;102180.59;2962892;80;21032;-67
2021/12/18 00:36:27;;;;;;;31.05;22.02;;;;;;;3.46;92.62;102183.30;2962710;80;21127;-70
2021/12/18 00:40:42;;;;;;;49.95;24.50;;;;;;;3.51;93.02;102188.00;2962854;80;21591;-68
2021/12/18 00:44:33;;;;;;;38.17;21.20;;;;;;;3.59;92.47;102201.46;2962219;80;21040;-66
2021/12/18 00:48:35;;;;;;;23.60;14.30;;;;;;;3.62;92.03;102203.55;2936491;80;20989;-67
2021/12/18 00:52:36;;;;;;;17.40;12.60;;;;;;;3.53;91.53;102196.73;2910424;82;21020;-67
2021/12/18 00:56:39;;;;;;;14.18;9.18;;;;;;;3.44;91.58;102202.20;2910224;82;21707;-69
2021/12/18 01:00:42;;;;;;;15.15;11.12;;;;;;;3.49;91.03;102197.70;2910356;82;21009;-68
2021/12/18 01:04:45;;;;;;;23.50;12.05;;;;;;;3.44;91.91;102206.14;2911942;80;21052;-65
2021/12/18 01:08:47;;;;;;;17.70;7.75;;;;;;;3.48;92.71;102208.27;2971894;80;21008;-66
2021/12/18 01:12:52;;;;;;;18.80;9.78;;;;;;;3.51;93.05;102205.57;2971930;80;21012;-67
2021/12/18 01:22:40;;;;;;;17.60;9.50;;;;;;;3.60;92.73;102204.51;2971772;80;21023;-69
2021/12/18 01:25:17;;;;;;;17.50;8.95;;;;;;;3.63;92.59;102209.70;2972134;80;20980;-67
2021/12/18 01:29:19;;;;;;;17.67;10.03;;;;;;;3.67;92.40;102217.94;2972166;80;21024;-68
2021/12/18 01:33:21;;;;;;;14.58;7.33;;;;;;;3.74;92.50;102219.99;2972220;80;21052;-66
2021/12/18 01:37:23;;;;;;;14.35;9.25;;;;;;;3.82;92.42;102199.61;2971968;80;21047;-69
2021/12/18 01:41:25;;;;;;;19.67;6.97;;;;;;;3.88;91.89;102190.28;2972099;80;21024;-68
2021/12/18 01:53:57;;;;;;;15.85;7.25;;;;;;;3.89;91.76;102191.12;2971782;80;21048;-67
2021/12/18 01:57:59;;;;;;;16.65;8.13;;;;;;;3.85;91.41;102187.72;2972018;80;21004;-69
2021/12/18 02:02:02;;;;;;;19.87;7.45;;;;;;;3.69;92.42;102189.81;2971912;80;20996;-68
2021/12/18 02:06:05;;;;;;;15.05;7.17;;;;;;;3.70;92.96;102188.91;2971887;80;21090;-68
2021/12/18 02:10:15;;;;;;;12.88;7.10;;;;;;;3.73;93.39;102199.37;2971940;80;21094;-65
2021/12/18 02:19:30;;;;;;;16.07;7.62;;;;;;;3.94;93.00;102199.81;2970941;80;21039;-67
2021/12/18 02:22:40;;;;;;;15.60;7.58;;;;;;;4.08;92.43;102177.94;2972112;80;21047;-67
2021/12/18 02:26:41;;;;;;;17.42;8.58;;;;;;;4.20;92.21;102180.72;2972254;80;20996;-68
2021/12/18 02:30:45;;;;;;;15.50;8.03;;;;;;;4.27;91.90;102178.38;2972289;80;20965;-65
2021/12/18 02:34:53;;;;;;;15.45;7.20;;;;;;;4.22;91.89;102171.01;2972264;80;20973;-68
2021/12/18 02:42:55;;;;;;;15.13;8.30;;;;;;;4.14;92.28;102172.55;2972147;80;20960;-69
2021/12/18 02:46:56;;;;;;;19.82;8.75;;;;;;;4.12;92.50;102166.89;2965574;80;21016;-69
2021/12/18 02:50:59;;;;;;;14.13;8.43;;;;;;;4.21;92.32;102161.84;2963110;80;20977;-65
2021/12/18 02:55:00;;;;;;;12.98;6.58;;;;;;;4.18;92.55;102158.83;2963098;80;21035;-69
2021/12/18 02:59:08;;;;;;;13.35;8.30;;;;;;;4.17;92.48;102166.78;2962857;80;21075;-67
2021/12/18 03:03:11;;;;;;;13.98;6.60;;;;;;;4.22;92.20;102171.01;2963263;80;21040;-67
2021/12/18 03:07:14;;;;;;;13.60;6.80;;;;;;;4.13;92.12;102165.98;2963228;80;21009;-68
2021/12/18 03:28:20;;;;;;;14.68;8.15;;;;;;;4.34;91.49;102163.71;2962887;80;21079;-65
2021/12/18 03:32:23;;;;;;;12.43;7.55;;;;;;;4.38;91.23;102153.50;2962294;80;20992;-70
2021/12/18 03:36:26;;;;;;;16.93;9.48;;;;;;;4.41;90.81;102155.61;2962915;80;20969;-70
2021/12/18 03:40:28;;;;;;;13.15;8.03;;;;;;;4.40;91.01;102155.20;2963110;80;21071;-70
2021/12/18 03:44:29;;;;;;;17.25;6.83;;;;;;;4.42;90.81;102154.70;2963582;80;21025;-69
2021/12/18 03:48:31;;;;;;;14.68;8.08;;;;;;;4.49;90.54;102152.78;2972452;80;21004;-69
2021/12/18 03:52:33;;;;;;;14.50;8.53;;;;;;;4.55;90.55;102148.66;2972153;80;21016;-67
2021/12/18 03:56:35;;;;;;;16.30;7.97;;;;;;;4.68;90.25;102149.19;2972377;80;21059;-68
2021/12/18 04:00:37;;;;;;;19.10;10.15;;;;;;;4.71;90.16;102142.98;2972301;80;21071;-64
2021/12/18 04:04:38;;;;;;;16.17;9.03;;;;;;;4.77;90.21;102141.95;2972576;80;21023;-69
2021/12/18 04:08:41;;;;;;;30.92;10.00;;;;;;;4.76;90.27;102144.17;2972136;80;20976;-67
2021/12/18 04:12:43;;;;;;;15.75;9.43;;;;;;;4.70;90.32;102144.73;2972520;80;21008;-64
2021/12/18 04:16:45;;;;;;;14.45;8.03;;;;;;;4.68;90.39;102147.87;2972357;80;21024;-67
2021/12/18 04:20:47;;;;;;;14.85;9.25;;;;;;;4.70;90.05;102143.41;2972066;80;21086;-67
2021/12/18 04:24:49;;;;;;;14.03;9.83;;;;;;;4.74;89.64;102140.72;2972301;80;21016;-66
2021/12/18 04:28:51;;;;;;;12.50;9.33;;;;;;;4.78;89.39;102131.81;2972449;80;21036;-68
2021/12/18 04:32:53;;;;;;;14.78;8.13;;;;;;;4.76;89.58;102130.99;2972539;80;21019;-67
2021/12/18 04:36:54;;;;;;;15.48;9.53;;;;;;;4.77;89.51;102134.89;2972574;80;21000;-67
2021/12/18 04:40:56;;;;;;;12.25;8.08;;;;;;;4.72;89.79;102134.16;2972316;80;21559;-67
2021/12/18 04:44:57;;;;;;;11.65;6.67;;;;;;;4.60;90.01;102138.44;2971391;80;21059;-67
2021/12/18 04:48:59;;;;;;;11.88;8.10;;;;;;;4.60;90.00;102131.41;2962900;80;21059;-66
2021/12/18 04:53:01;;;;;;;9.40;6.12;;;;;;;4.52;89.51;102125.46;2962969;80;20989;-67
2021/12/18 04:57:03;;;;;;;11.53;7.05;;;;;;;4.56;89.27;102117.91;2962970;80;21016;-67
2021/12/18 05:01:05;;;;;;;12.53;6.83;;;;;;;4.54;88.97;102121.89;2962774;80;21004;-64
2021/12/18 05:05:10;;;;;;;12.73;7.60;;;;;;;4.57;88.69;102118.31;2962845;80;21044;-68
2021/12/18 05:09:14;;;;;;;9.48;6.03;;;;;;;4.52;87.87;102121.07;2963141;80;21063;-68
2021/12/18 05:13:16;;;;;;;11.15;7.22;;;;;;;4.55;87.69;102126.25;2963046;80;22025;-66
2021/12/18 05:17:17;;;;;;;15.08;8.10;;;;;;;4.63;87.70;102122.56;2963255;80;20976;-69
2021/12/18 05:21:20;;;;;;;11.25;5.50;;;;;;;4.68;87.56;102115.39;2962725;80;21020;-69
2021/12/18 05:25:21;;;;;;;16.97;7.17;;;;;;;4.69;87.78;102116.64;2962523;80;20977;-69
2021/12/18 05:29:23;;;;;;;13.55;7.03;;;;;;;4.76;87.51;102113.86;2962403;80;20984;-67
2021/12/18 05:33:25;;;;;;;12.82;7.83;;;;;;;4.79;87.46;102117.72;2962798;80;21039;-67
2021/12/18 05:37:46;;;;;;;15.58;8.05;;;;;;;4.77;87.51;102115.11;2962880;80;21020;-69
2021/12/18 05:41:38;;;;;;;11.63;7.42;;;;;;;4.82;87.51;102108.40;2960140;79;21105;-68
2021/12/18 05:45:40;;;;;;;11.40;7.58;;;;;;;4.86;87.49;102103.00;2964517;80;21066;-69
2021/12/18 05:49:45;;;;;;;12.85;8.15;;;;;;;4.78;86.80;102093.11;2972219;80;21030;-69
2021/12/18 05:53:48;;;;;;;14.65;9.68;;;;;;;4.82;87.13;102091.26;2972062;80;21013;-67
2021/12/18 05:57:50;;;;;;;14.78;10.95;;;;;;;4.82;86.92;102089.94;2972241;80;21064;-64
2021/12/18 06:01:54;;;;;;;12.50;8.35;;;;;;;4.83;86.64;102086.39;2971970;80;21014;-68
2021/12/18 06:05:57;;;;;;;16.48;9.08;;;;;;;4.78;87.04;102078.61;2971807;80;21019;-67
2021/12/18 06:10:00;;;;;;;10.78;7.58;;;;;;;4.87;86.98;102076.16;2971958;80;21300;-69
2021/12/18 06:14:05;;;;;;;16.50;9.83;;;;;;;4.87;87.32;102082.75;2971269;80;20992;-67
2021/12/18 06:18:09;;;;;;;14.13;10.00;;;;;;;4.83;87.69;102079.80;2972230;80;21091;-67
2021/12/18 06:22:13;;;;;;;9.93;6.45;;;;;;;4.76;87.97;102072.98;2952916;80;21067;-66
2021/12/18 06:26:17;;;;;;;28.10;9.98;;;;;;;4.74;87.28;102078.30;2910994;82;21008;-68
2021/12/18 06:30:19;;;;;;;21.20;8.88;;;;;;;4.77;87.51;102069.44;2910781;82;21087;-68
2021/12/18 06:34:25;;;;;;;20.60;9.78;;;;;;;4.78;87.48;102076.44;2910576;82;21032;-69
2021/12/18 06:38:27;;;;;;;23.47;9.87;;;;;;;4.83;87.69;102070.57;2966477;80;21067;-68
2021/12/18 06:42:29;;;;;;;17.80;8.88;;;;;;;4.75;87.10;102068.63;2971941;80;21103;-66
2021/12/18 06:46:33;;;;;;;15.08;10.30;;;;;;;4.85;87.50;102070.95;2968735;80;21009;-68
2021/12/18 06:50:39;;;;;;;20.50;11.13;;;;;;;4.84;86.75;102069.22;2962874;80;21048;-68
2021/12/18 06:54:42;;;;;;;26.60;10.03;;;;;;;4.78;86.37;102063.26;2962701;80;21069;-66
2021/12/18 06:58:44;;;;;;;15.83;9.95;;;;;;;4.82;86.37;102062.25;2962960;80;21059;-71
2021/12/18 07:02:49;;;;;;;15.05;9.00;;;;;;;4.92;87.16;102061.09;2963231;80;21004;-65
2021/12/18 07:06:53;;;;;;;21.02;9.90;;;;;;;4.90;86.79;102065.98;2963092;80;21024;-64
2021/12/18 07:10:55;;;;;;;19.70;10.82;;;;;;;4.90;86.73;102072.11;2962919;80;21032;-67
2021/12/18 07:14:56;;;;;;;16.30;10.10;;;;;;;4.87;86.42;102073.52;2962882;80;21044;-64
2021/12/18 07:18:58;;;;;;;13.28;9.20;;;;;;;4.97;86.37;102067.09;2963196;80;21028;-70
2021/12/18 07:23:01;;;;;;;13.58;8.25;;;;;;;4.98;86.27;102062.22;2962510;80;21036;-64
2021/12/18 07:27:06;;;;;;;15.65;10.43;;;;;;;4.98;86.41;102052.98;2963250;80;20984;-69
2021/12/18 07:31:08;;;;;;;20.02;10.45;;;;;;;5.04;86.45;102058.98;2963105;80;21000;-68
2021/12/18 07:35:14;;;;;;;12.88;9.65;;;;;;;5.13;86.68;102052.12;2963089;80;21051;-64
2021/12/18 07:39:16;;;;;;;18.75;11.35;;;;;;;5.19;86.56;102050.60;2963068;80;21091;-68
2021/12/18 07:43:23;;;;;;;13.45;10.35;;;;;;;5.18;87.30;102048.00;2963048;79;21080;-69
2021/12/18 07:47:31;;;;;;;15.20;9.78;;;;;;;5.19;86.99;102053.24;2962578;80;21036;-68
2021/12/18 07:51:36;;;;;;;10.30;7.20;;;;;;;5.23;87.28;102054.02;2963280;80;20983;-65
2021/12/18 07:55:41;;;;;;;14.87;8.60;;;;;;;5.26;87.05;102059.20;2963096;80;21028;-68
2021/12/18 07:59:45;;;;;;;16.87;9.88;;;;;;;5.26;87.36;102054.77;2963056;80;20973;-67
2021/12/18 08:03:48;;;;;;;18.50;8.18;;;;;;;5.33;87.27;102055.91;2962843;80;21028;-66
2021/12/18 08:07:52;;;;;;;14.40;8.38;;;;;;;5.36;86.94;102059.77;2962913;80;20972;-65
2021/12/18 08:11:55;;;;;;;13.72;9.65;;;;;;;5.47;86.89;102066.03;2962390;80;21040;-69
2021/12/18 08:15:59;;;;;;;12.90;10.03;;;;;;;5.48;86.62;102060.69;2962362;80;21076;-68
2021/12/18 08:20:04;;;;;;;13.20;9.05;;;;;;;5.56;86.66;102065.28;2962583;80;21075;-69
2021/12/18 08:24:09;;;;;;;12.80;9.15;;;;;;;5.62;86.62;102054.98;2962423;80;21024;-68
2021/12/18 08:28:14;;;;;;;11.78;9.00;;;;;;;5.66;87.31;102055.28;2961668;79;21036;-67
2021/12/18 08:32:19;;;;;;;19.40;10.98;;;;;;;5.72;86.75;102053.75;2911458;80;21051;-69
2021/12/18 08:36:21;;;;;;;17.67;10.60;;;;;;;5.75;87.08;102039.59;2908423;82;21031;-66
2021/12/18 08:40:27;;;;;;;17.80;9.43;;;;;;;5.79;86.98;102046.93;2951669;80;21055;-70
2021/12/18 08:44:28;;;;;;;20.43;13.90;;;;;;;5.74;87.10;102049.75;2962832;80;21027;-65
2021/12/18 08:48:31;;;;;;;20.00;10.32;;;;;;;5.78;86.83;102055.77;2960829;80;21056;-66
2021/12/18 08:52:34;;;;;;;18.98;10.95;;;;;;;5.85;87.22;102033.06;2927783;80;20993;-68
2021/12/18 08:56:35;;;;;;;16.82;11.00;;;;;;;5.93;87.38;102030.64;2962514;80;20938;-64
2021/12/18 09:00:37;;;;;;;16.48;10.70;;;;;;;5.82;87.02;102021.29;2962949;80;20992;-66
2021/12/18 09:04:39;;;;;;;16.02;11.48;;;;;;;5.86;86.47;102029.52;2962261;80;21036;-66
2021/12/18 09:08:41;;;;;;;18.35;10.82;;;;;;;5.94;87.19;102035.85;2946348;80;21028;-62
2021/12/18 09:12:44;;;;;;;16.27;11.30;;;;;;;6.00;87.01;102029.06;2945380;80;21489;-65
2021/12/18 09:16:45;;;;;;;16.17;9.50;;;;;;;6.08;86.89;102031.44;2920848;80;21072;-66
2021/12/18 09:20:47;;;;;;;17.87;11.35;;;;;;;5.97;87.00;102029.62;2907935;80;20981;-65
2021/12/18 09:24:49;;;;;;;17.90;10.25;;;;;;;6.07;86.96;102026.23;2918256;80;21007;-70
2021/12/18 09:28:51;;;;;;;16.15;9.90;;;;;;;5.97;87.63;102025.66;2891475;81;21039;-71
2021/12/18 09:32:53;;;;;;;21.27;11.28;;;;;;;6.06;87.82;102025.83;2942223;80;21041;-69
2021/12/18 09:36:55;;;;;;;14.38;9.90;;;;;;;6.08;87.45;102022.19;2960414;80;21002;-70
2021/12/18 09:41:02;;;;;;;16.67;11.05;;;;;;;6.08;87.50;102007.66;2957613;80;21050;-65
2021/12/18 09:45:08;;;;;;;13.25;10.72;;;;;;;6.12;87.70;102001.38;2961435;80;28144;-67
2021/12/18 09:49:12;;;;;;;19.35;10.50;;;;;;;6.22;87.38;101986.50;2969200;80;21070;-68
2021/12/18 09:53:13;;;;;;;19.10;11.83;;;;;;;6.18;88.02;101986.20;2970874;80;21030;-68
2021/12/18 09:57:16;;;;;;;18.05;8.40;;;;;;;6.18;88.07;101979.61;2970698;80;21045;-68
2021/12/18 10:01:20;;;;;;;20.35;11.70;;;;;;;6.19;88.15;101968.12;2971198;80;21479;-68
2021/12/18 10:05:26;;;;;;;12.60;10.18;;;;;;;6.20;89.17;101967.20;2971532;80;20982;-65
2021/12/18 10:09:33;;;;;;;11.48;8.95;;;;;;;6.19;88.98;101957.10;2971741;80;21065;-69
2021/12/18 10:13:55;;;;;;;17.02;10.35;;;;;;;6.19;88.91;101957.55;2962717;80;21459;-68
2021/12/18 10:18:10;;;;;;;8.58;7.65;;;;;;;6.25;88.34;101943.66;2953053;80;20965;-64
2021/12/18 10:22:13;;;;;;;9.80;7.40;;;;;;;6.23;88.06;101942.85;2910095;81;21028;-69
2021/12/18 10:26:42;;;;;;;16.17;9.40;;;;;;;6.27;88.28;101945.77;2909303;82;20981;-66
2021/12/18 10:30:56;;;;;;;13.15;9.60;;;;;;;6.37;88.69;101925.59;2909748;82;21075;-69
2021/12/18 10:34:59;;;;;;;10.05;8.55;;;;;;;6.38;87.96;101929.52;2909934;82;21024;-65
2021/12/18 10:39:01;;;;;;;13.08;11.30;;;;;;;6.30;87.80;101921.02;2910077;82;21028;-66
2021/12/18 10:43:04;;;;;;;15.00;10.95;;;;;;;6.40;88.15;101932.11;2921940;80;21066;-68
2021/12/18 10:47:06;;;;;;;12.28;9.58;;;;;;;6.37;88.19;101930.44;2970958;80;21061;-67
2021/12/18 10:51:12;;;;;;;17.87;10.68;;;;;;;6.32;88.81;101924.47;2970503;80;21042;-74
2021/12/18 10:55:13;;;;;;;10.75;8.65;;;;;;;6.31;88.94;101922.75;2936697;80;21045;-73
2021/12/18 10:59:31;;;;;;;7.65;5.97;;;;;;;6.29;88.55;101908.25;2970625;80;21006;-71
2021/12/18 11:03:40;;;;;;;5.78;5.17;;;;;;;6.18;87.60;101905.14;2970048;80;21018;-72
2021/12/18 11:07:44;;;;;;;10.75;7.08;;;;;;;6.19;87.07;101918.78;2941001;80;21120;-70
2021/12/18 11:16:06;;;;;;;9.03;7.45;;;;;;;6.16;87.23;101907.45;2969325;80;21023;-72
2021/12/18 11:20:10;;;;;;;7.12;5.62;;;;;;;6.17;87.90;101901.25;2969356;79;21007;-71
2021/12/18 11:24:13;;;;;;;8.43;6.92;;;;;;;6.17;88.80;101906.54;2969731;79;21023;-72
2021/12/18 11:28:16;;;;;;;9.95;6.20;;;;;;;6.17;89.05;101903.89;2943717;80;21084;-73
2021/12/18 11:32:25;;;;;;;8.68;7.70;;;;;;;6.19;89.53;101904.25;2925743;80;20976;-70
2021/12/18 11:36:26;;;;;;;12.58;7.90;;;;;;;6.18;89.75;101893.73;2969824;80;21086;-71
2021/12/18 11:40:33;;;;;;;10.45;7.92;;;;;;;6.19;89.64;101889.72;2913140;80;21032;-70
2021/12/18 11:44:42;;;;;;;8.85;6.17;;;;;;;6.20;89.39;101876.91;2944933;80;20990;-70
2021/12/18 11:49:09;;;;;;;8.83;7.17;;;;;;;6.18;89.63;101868.14;2965866;80;21007;-69
2021/12/18 11:53:16;;;;;;;10.55;7.35;;;;;;;6.25;89.85;101854.24;2962349;80;20955;-70
2021/12/18 11:57:41;;;;;;;7.97;6.37;;;;;;;6.32;89.95;101856.19;2961456;80;21047;-72
2021/12/18 12:01:46;;;;;;;9.30;7.42;;;;;;;6.34;89.45;101846.42;2962202;80;21050;-67
2021/12/18 12:05:50;;;;;;;9.90;6.65;;;;;;;6.36;89.48;101841.48;2962077;80;21029;-69
2021/12/18 12:10:19;;;;;;;9.98;7.75;;;;;;;6.41;88.95;101832.91;2961176;80;21018;-70
2021/12/18 12:14:19;;;;;;;8.33;7.33;;;;;;;6.47;88.59;101833.58;2959604;80;21065;-71
2021/12/18 12:18:21;;;;;;;11.05;8.28;;;;;;;6.50;88.26;101818.94;2960204;80;21058;-76
2021/12/18 12:22:42;;;;;;;11.18;7.17;;;;;;;6.47;87.91;101821.68;2958165;80;21054;-75
2021/12/18 12:26:44;;;;;;;10.80;7.03;;;;;;;6.64;88.03;101809.13;2957883;80;21045;-73
2021/12/18 12:31:05;;;;;;;10.25;7.40;;;;;;;6.60;87.96;101810.17;2958023;80;21077;-74
2021/12/18 12:35:13;;;;;;;9.78;6.90;;;;;;;6.69;88.09;101817.27;2958021;80;21018;-74
2021/12/18 12:39:17;;;;;;;10.20;6.30;;;;;;;6.64;88.12;101795.90;2957711;80;21022;-74
2021/12/18 12:43:28;;;;;;;8.33;5.80;;;;;;;6.66;88.36;101803.30;2951304;80;21022;-72
2021/12/18 12:47:31;;;;;;;8.63;6.47;;;;;;;6.75;88.31;101799.42;2924568;80;21060;-74
2021/12/18 12:52:08;;;;;;;8.78;7.22;;;;;;;6.73;88.18;101784.08;2958056;80;20977;-73
2021/12/18 12:56:15;;;;;;;7.70;6.15;;;;;;;6.73;88.84;101780.11;2958249;80;21039;-72
2021/12/18 13:00:25;;;;;;;7.40;6.00;;;;;;;6.82;88.48;101779.71;2958141;80;21048;-76
2021/12/18 13:04:27;;;;;;;8.73;5.97;;;;;;;6.80;88.38;101768.34;2958573;80;21000;-74
2021/12/18 13:08:32;;;;;;;7.90;6.25;;;;;;;6.85;88.60;101769.00;2958531;80;21068;-74
2021/12/18 13:12:33;;;;;;;10.82;6.40;;;;;;;6.82;88.96;101772.66;2959649;80;21032;-72
2021/12/18 13:16:35;;;;;;;6.67;5.95;;;;;;;6.74;89.62;101775.22;2955662;80;20979;-71
2021/12/18 13:20:55;;;;;;;12.63;6.60;;;;;;;6.78;89.81;101759.61;2960572;80;21045;-71
2021/12/18 13:25:12;;;;;;;6.85;5.83;;;;;;;6.90;89.85;101760.88;2960211;80;21011;-70
2021/12/18 13:29:20;;;;;;;12.15;8.10;;;;;;;6.76;89.98;101754.38;2960932;80;21022;-72
2021/12/18 13:33:30;;;;;;;10.03;7.30;;;;;;;6.78;90.41;101741.10;2959161;80;21030;-71
2021/12/18 13:37:32;;;;;;;15.53;9.73;;;;;;;6.77;90.97;101753.93;2959277;80;21062;-72
2021/12/18 13:41:34;;;;;;;13.55;8.23;;;;;;;6.81;91.54;101758.16;2958131;80;21069;-71
2021/12/18 13:46:04;;;;;;;13.38;10.32;;;;;;;6.79;91.64;101746.78;2958402;80;21045;-70
2021/12/18 13:50:19;;;;;;;11.48;9.00;;;;;;;6.83;91.63;101751.02;2966216;80;21359;-69
2021/12/18 13:54:21;;;;;;;17.02;11.10;;;;;;;6.82;92.14;101751.50;2968618;80;21073;-71
2021/12/18 13:58:37;;;;;;;11.83;9.10;;;;;;;6.85;92.29;101746.07;2940665;80;21047;-71
2021/12/18 14:02:39;;;;;;;10.72;7.97;;;;;;;6.81;93.20;101726.42;2966187;80;21017;-70
2021/12/18 14:06:43;;;;;;;11.28;8.00;;;;;;;6.81;93.20;101726.42;2968236;80;21044;-72
2021/12/18 14:10:46;;;;;;;9.63;8.15;;;;;;;6.76;93.45;101724.44;2967927;80;21048;-71
2021/12/18 14:14:52;;;;;;;9.38;6.87;;;;;;;6.84;93.72;101726.28;2968624;80;21042;-71
2021/12/18 14:18:58;;;;;;;13.53;8.63;;;;;;;6.84;94.29;101714.38;2968781;80;21121;-70
2021/12/18 14:23:11;;;;;;;11.10;9.08;;;;;;;6.74;95.27;101717.04;2945759;80;21032;-75
2021/12/18 14:27:13;;;;;;;16.20;9.48;;;;;;;6.74;95.81;101702.02;2942059;80;21094;-74
2021/12/18 14:31:32;;;;;;;12.85;8.88;;;;;;;6.82;96.24;101708.30;2910495;82;21040;-73
2021/12/18 14:35:34;;;;;;;14.33;10.23;;;;;;;6.75;97.12;101708.17;2909711;82;21036;-76
2021/12/18 14:39:47;;;;;;;13.38;9.10;;;;;;;6.75;97.69;101694.95;2909327;82;21075;-72
2021/12/18 14:44:05;;;;;;;19.55;9.98;;;;;;;6.66;98.50;101702.82;2933715;80;21100;-72
2021/12/18 14:48:08;;;;;;;13.35;10.32;;;;;;;6.76;98.25;101694.87;2917753;81;21038;-74
2021/12/18 14:52:10;;;;;;;15.38;11.10;;;;;;;6.83;97.95;101694.15;2923626;80;21051;-72
2021/12/18 14:56:16;;;;;;;12.90;8.48;;;;;;;6.95;97.63;101688.33;2940310;80;21005;-72
2021/12/18 15:00:29;;;;;;;11.83;8.68;;;;;;;7.08;97.24;101687.80;2957631;80;21039;-74
2021/12/18 15:04:31;;;;;;;10.40;7.22;;;;;;;7.04;97.63;101677.80;2955893;80;21000;-74
2021/12/18 15:08:59;;;;;;;20.23;8.55;;;;;;;7.00;98.21;101670.45;2959074;80;21493;-75
2021/12/18 15:13:17;;;;;;;13.30;10.08;;;;;;;7.06;97.81;101671.09;2920349;80;20967;-72
2021/12/18 15:17:19;;;;;;;18.10;10.40;;;;;;;7.12;97.62;101668.20;2922875;80;21060;-72
2021/12/18 15:21:21;;;;;;;15.08;10.58;;;;;;;7.09;97.61;101655.11;2929530;80;21024;-74
2021/12/18 15:25:22;;;;;;;12.05;9.15;;;;;;;7.14;97.47;101645.17;2961005;80;21047;-73
2021/12/18 15:29:30;;;;;;;14.13;10.15;;;;;;;7.21;97.11;101634.69;2950765;80;21008;-75
2021/12/18 15:33:33;;;;;;;13.72;10.48;;;;;;;7.24;96.85;101634.54;2943834;80;21024;-73
2021/12/18 15:37:35;;;;;;;17.05;11.05;;;;;;;7.26;96.67;101632.67;2930183;80;21092;-75
2021/12/18 15:41:38;;;;;;;14.33;10.45;;;;;;;7.25;96.71;101634.93;2900436;82;21055;-74
2021/12/18 15:45:40;;;;;;;11.35;8.35;;;;;;;7.22;96.96;101608.61;2951998;80;21050;-75
2021/12/18 15:49:44;;;;;;;11.28;9.00;;;;;;;7.23;96.66;101602.87;2963625;80;21042;-74
2021/12/18 15:53:47;;;;;;;12.50;10.72;;;;;;;7.24;96.71;101627.92;2963901;80;21026;-77
2021/12/18 15:57:49;;;;;;;13.58;8.70;;;;;;;7.26;97.16;101610.66;2962969;80;20986;-79
2021/12/18 16:01:51;;;;;;;14.50;8.30;;;;;;;7.20;97.43;101591.95;2966682;80;21077;-77
2021/12/18 16:05:53;;;;;;;11.55;8.18;;;;;;;7.20;97.73;101591.95;2965516;80;21025;-77
2021/12/18 16:09:55;;;;;;;10.63;8.50;;;;;;;7.11;98.38;101590.59;2965510;80;20966;-77
2021/12/18 16:13:57;;;;;;;9.85;8.00;;;;;;;7.18;98.38;101586.35;2966218;80;21038;-75
2021/12/18 16:17:59;;;;;;;12.30;8.90;;;;;;;7.17;98.41;101589.45;2967127;80;20944;-72
2021/12/18 16:22:01;;;;;;;10.88;8.88;;;;;;;7.17;98.34;101586.80;2967540;80;21443;-71
2021/12/18 16:26:03;;;;;;;10.50;6.37;;;;;;;7.14;98.18;101583.83;2967643;80;20991;-72
2021/12/18 16:30:09;;;;;;;11.03;6.87;;;;;;;7.12;97.96;101579.55;2967551;80;21640;-72
2021/12/18 16:34:11;;;;;;;7.62;6.10;;;;;;;7.26;97.41;101581.06;2967956;80;20991;-73
2021/12/18 16:42:17;;;;;;;7.17;5.65;;;;;;;7.12;96.70;101556.58;2965710;80;21081;-77
2021/12/18 16:46:22;;;;;;;9.18;7.40;;;;;;;7.12;96.92;101555.25;2964551;80;21313;-76
2021/12/18 16:50:24;;;;;;;11.00;7.58;;;;;;;7.13;97.27;101568.04;2963520;80;21034;-76
2021/12/18 16:54:25;;;;;;;12.40;8.40;;;;;;;7.12;97.68;101562.35;2963062;80;21097;-77
2021/12/18 16:58:27;;;;;;;8.48;6.53;;;;;;;7.14;98.11;101553.88;2962875;80;21014;-76
2021/12/18 17:02:28;;;;;;;7.97;7.17;;;;;;;7.06;98.42;101554.68;2962913;80;21006;-77
2021/12/18 17:06:30;;;;;;;8.40;7.22;;;;;;;7.07;98.77;101557.72;2962962;80;20994;-77
2021/12/18 17:10:34;;;;;;;7.58;5.80;;;;;;;7.07;98.39;101556.39;2962560;80;21022;-76
2021/12/18 17:14:35;;;;;;;10.68;6.67;;;;;;;6.98;98.97;101559.88;2962837;80;20994;-77
2021/12/18 17:18:39;;;;;;;7.17;6.15;;;;;;;7.06;98.55;101552.03;2962807;80;20999;-77
2021/12/18 17:22:42;;;;;;;9.38;7.28;;;;;;;7.07;98.75;101549.78;2962960;80;21561;-77
2021/12/18 17:26:44;;;;;;;8.63;6.10;;;;;;;7.20;98.27;101553.58;2963132;80;21065;-76
2021/12/18 17:30:45;;;;;;;10.18;6.92;;;;;;;7.15;98.06;101545.84;2963866;80;21014;-76
2021/12/18 17:34:47;;;;;;;9.45;5.58;;;;;;;7.27;97.75;101561.64;2963599;80;21319;-74
2021/12/18 17:38:49;;;;;;;8.98;5.85;;;;;;;7.16;98.34;101555.98;2963148;80;21062;-77
2021/12/18 17:42:53;;;;;;;10.48;6.05;;;;;;;7.14;98.51;101561.33;2956595;80;21014;-77
2021/12/18 17:46:56;;;;;;;7.28;6.10;;;;;;;7.16;98.52;101559.95;2922778;81;21069;-76
2021/12/18 17:51:00;;;;;;;8.75;6.15;;;;;;;7.28;98.00;101551.44;2939485;81;21019;-74
2021/12/18 17:55:02;;;;;;;11.28;7.22;;;;;;;7.29;97.75;101541.24;2944238;81;21007;-74
2021/12/18 17:59:04;;;;;;;8.18;7.20;;;;;;;7.29;97.58;101543.89;2944325;81;21546;-74
2021/12/18 18:03:06;;;;;;;7.25;6.53;;;;;;;7.33;97.13;101530.50;2943643;81;21007;-74
2021/12/18 18:07:08;;;;;;;9.18;6.65;;;;;;;7.32;96.89;101537.56;2916777;81;21003;-74
2021/12/18 18:11:09;;;;;;;6.20;5.33;;;;;;;7.33;96.69;101510.65;2945341;81;21105;-76
2021/12/18 18:15:11;;;;;;;8.43;7.30;;;;;;;7.47;95.74;101511.29;2957296;80;20955;-70
2021/12/18 18:19:13;;;;;;;9.03;7.70;;;;;;;7.45;95.65;101500.77;2961794;80;21019;-70
2021/12/18 18:23:15;;;;;;;7.67;5.62;;;;;;;7.52;95.42;101507.48;2962515;80;21527;-69
2021/12/18 18:27:17;;;;;;;8.58;6.37;;;;;;;7.52;95.20;101502.65;2962396;80;21015;-71
2021/12/18 18:31:19;;;;;;;6.42;5.25;;;;;;;7.51;95.17;101484.59;2962337;80;21029;-73
2021/12/18 18:35:21;;;;;;;8.93;6.33;;;;;;;7.48;95.21;101482.11;2962323;80;21054;-72
2021/12/18 18:39:23;;;;;;;6.55;5.72;;;;;;;7.62;94.91;101480.53;2962354;80;21036;-71
2021/12/18 18:43:27;;;;;;;6.00;5.37;;;;;;;7.50;95.01;101470.09;2962512;80;21042;-70
2021/12/18 18:47:44;;;;;;;5.83;5.15;;;;;;;7.51;94.50;101471.80;2962234;80;21097;-72
2021/12/18 18:51:42;;;;;;;6.67;5.97;;;;;;;7.64;94.09;101468.07;2959963;80;21035;-73
2021/12/18 18:55:44;;;;;;;7.70;5.15;;;;;;;7.66;93.97;101461.77;2962095;80;21082;-71
2021/12/18 18:59:46;;;;;;;6.28;5.00;;;;;;;7.69;93.83;101468.72;2962551;80;21014;-74
2021/12/18 19:03:48;;;;;;;5.87;4.47;;;;;;;7.68;93.62;101470.50;2962783;80;21018;-71
2021/12/18 19:07:50;;;;;;;5.40;4.90;;;;;;;7.69;93.66;101466.07;2962537;80;21054;-73
2021/12/18 19:11:52;;;;;;;8.73;5.10;;;;;;;7.70;93.56;101473.08;2961774;80;21006;-73
2021/12/18 19:15:54;;;;;;;6.35;5.05;;;;;;;7.70;93.80;101467.30;2961997;80;21042;-75
2021/12/18 19:20:09;;;;;;;7.10;5.55;;;;;;;7.63;94.16;101461.06;2962252;80;21054;-72
2021/12/18 19:24:08;;;;;;;10.45;5.30;;;;;;;7.59;94.45;101452.44;2961355;80;21003;-72
2021/12/18 19:28:10;;;;;;;5.85;5.12;;;;;;;7.39;95.24;101461.36;2961781;80;21022;-72
2021/12/18 19:32:11;;;;;;;6.37;5.10;;;;;;;7.43;95.52;101444.39;2961647;80;21026;-75
2021/12/18 19:36:14;;;;;;;8.70;5.83;;;;;;;7.53;95.44;101436.84;2961346;80;20971;-71
2021/12/18 19:40:16;;;;;;;7.70;5.05;;;;;;;7.50;95.67;101427.73;2961448;80;20999;-74